Terminal Aerodrome Forecast
Issued by NWS Austin/San Antonio, TX

Home | Current Version | Previous Version | Text Only | Print | Product List | Glossary On
Versions: 1 2 3 4 5 6 7 8 9 10 11 12 13
000
FTUS44 KEWX 151120
TAFDRT
TAF
KDRT 151120Z 1512/1612 33006KT P6SM BKN110 OVC200
     FM152200 16005KT P6SM OVC200=

USA.gov is the U.S. government's official web portal to all federal, state and local government web resources and services.